Terminal Aerodrome Forecast
Issued by NWS Wilmington, OH

Current Version | Previous Version | Graphics & Text | Print | Product List | Glossary On
Versions: 1 2 3 4 5 6 7 8 9 10 11 12 13 14 15 16 17 18 19 20 21 22 23 24 25
335
FTUS41 KILN 250709 AAA
TAFILN
TAF AMD
KILN 250709Z 2507/2606 33005KT 1/4SM FG OVC002
     FM251100 33005KT 1SM BR OVC002
     FM251400 34008KT 3SM BR BKN006 OVC010
     FM251700 34012KT P6SM OVC015
     FM252000 33010KT P6SM BKN035
     FM260200 35005KT P6SM FEW035 BKN250=

USA.gov is the U.S. government's official web portal to all federal, state and local government web resources and services.